This is the latest recevied weather packets stored in our database for station/object KK7AZD-13. If no packets are shown the sender has not sent any weather packets the latest 1 day(s).
| Time | Temp. | Humidity | Pressure | Rain* | Wind** | Luminosity | Snow |
|---|---|---|---|---|---|---|---|
| 1778093559 | 21.67° C | 40% | 1019.9 hPa | 0 mm | - | 885 W/m² | - |
| 1778092656 | 20.56° C | 44% | 1020 hPa | 0 mm | - | 917 W/m² | - |
| 1778091756 | 20° C | 45% | 1020.1 hPa | 0 mm | - | 952 W/m² | - |
| 1778089953 | 19.44° C | 46% | 1020.5 hPa | 0 mm | - | 963 W/m² | - |
| 1778084534 | 15.56° C | 68% | 1020.5 hPa | 0 mm | - | 586 W/m² | - |
| 1778083632 | 15.56° C | 67% | 1020.4 hPa | 0 mm | - | 419 W/m² | - |
| 1778082730 | 13.89° C | 71% | 1020.7 hPa | 0 mm | - | 356 W/m² | - |
| 1778078883 | 10° C | 80% | 1020 hPa | 0 mm | - | 141 W/m² | - |
| 1778077980 | 8.89° C | 84% | 1020 hPa | 0 mm | - | 114 W/m² | - |
| 1778072563 | 3.89° C | 96% | 1019.3 hPa | 0 mm | - | 3 W/m² | - |
| 1778067154 | 5° C | 95% | 1018.9 hPa | 0 mm | - | 0 W/m² | - |
| 1778061740 | 6.67° C | 91% | 1018.4 hPa | 0 mm | - | 0 W/m² | - |
| 1778060837 | 6.67° C | 91% | 1018.2 hPa | 0 mm | - | 0 W/m² | - |
| 1778059936 | 6.67° C | 88% | 1018.3 hPa | 0 mm | - | 0 W/m² | - |
| 1778059035 | 7.78° C | 87% | 1018.2 hPa | 0 mm | - | 0 W/m² | - |
| 1778058132 | 7.78° C | 88% | 1018 hPa | 0 mm | - | 0 W/m² | - |
| 1778057228 | 8.89° C | 82% | 1017.9 hPa | 0 mm | - | 0 W/m² | - |
| 1778056325 | 8.89° C | 84% | 1017.8 hPa | 0 mm | - | 0 W/m² | - |
| 1778053616 | 8.33° C | 86% | 1017.6 hPa | 0 mm | - | 0 W/m² | - |
| 1778051811 | 8.89° C | 83% | 1017.3 hPa | 0 mm | - | 0 W/m² | - |
| 1778050908 | 10° C | 80% | 1017.2 hPa | 0 mm | - | 0 W/m² | - |
| 1778049102 | 10° C | 81% | 1017.3 hPa | 0 mm | - | 0 W/m² | - |
| 1778046394 | 10.56° C | 79% | 1016.7 hPa | 0 mm | - | 0 W/m² | - |
| 1778045492 | 10.56° C | 78% | 1016.5 hPa | 0 mm | - | 0 W/m² | - |
| 1778044591 | 11.67° C | 73% | 1016.6 hPa | 0 mm | - | 0 W/m² | - |
* Rain latest hour (hover to see other rain measurements)
** Current wind speed in m/s (hover to see current wind gust speed)